Time;durP1;ratioP1;P1;durP2;ratioP2;P2;SDS_P1;SDS_P2;PMS_P1;PMS_P2;Temp;Humidity;BMP_temperature;BMP_pressure;BME280_temperature;BME280_humidity;BME280_pressure;Samples;Min_cycle;Max_cycle;Signal;HPM_P1;HPM_P2
2023/03/01 00:00:46;;;;;;;3.28;2.47;;;16.70;48.20;;;;;;5112230;28;20529;-53
2023/03/01 00:03:12;;;;;;;2.45;2.25;;;16.70;48.20;;;;;;5113249;28;20535;-55
2023/03/01 00:05:46;;;;;;;2.33;2.13;;;16.60;48.10;;;;;;5115083;28;20188;-53
2023/03/01 00:08:12;;;;;;;3.03;2.17;;;16.70;48.20;;;;;;5117276;28;20169;-55
2023/03/01 00:10:43;;;;;;;2.58;2.38;;;16.60;48.20;;;;;;5117070;28;20257;-52
2023/03/01 00:13:12;;;;;;;2.55;1.95;;;16.60;48.10;;;;;;5116272;28;20230;-53
2023/03/01 00:15:41;;;;;;;2.40;2.20;;;16.60;48.20;;;;;;5116718;28;20177;-53
2023/03/01 00:18:07;;;;;;;3.38;2.47;;;16.60;48.20;;;;;;5117035;28;20178;-55
2023/03/01 00:20:33;;;;;;;2.58;2.15;;;16.50;48.20;;;;;;5115762;28;20220;-52
2023/03/01 00:22:59;;;;;;;2.50;2.28;;;16.50;48.20;;;;;;5116866;28;20165;-50
2023/03/01 00:25:24;;;;;;;2.30;2.10;;;16.50;48.10;;;;;;5116584;28;20687;-49
2023/03/01 00:27:50;;;;;;;3.67;2.17;;;16.50;48.10;;;;;;5115908;28;20260;-52
2023/03/01 00:30:15;;;;;;;2.40;2.20;;;16.50;48.10;;;;;;5116897;28;20492;-50
2023/03/01 00:32:41;;;;;;;2.25;2.08;;;16.50;48.80;;;;;;5116185;28;20689;-54
2023/03/01 00:35:07;;;;;;;2.25;2.05;;;16.50;48.20;;;;;;5115869;28;20221;-52
2023/03/01 00:37:32;;;;;;;2.00;1.90;;;16.40;48.20;;;;;;5116283;28;20170;-52
2023/03/01 00:39:58;;;;;;;2.65;2.28;;;16.40;48.10;;;;;;5116519;28;20169;-52
2023/03/01 00:42:23;;;;;;;2.40;2.20;;;16.40;48.20;;;;;;5115633;28;20571;-53
2023/03/01 00:44:49;;;;;;;2.70;2.17;;;16.40;48.20;;;;;;5115999;28;20537;-54
2023/03/01 00:47:14;;;;;;;2.30;2.10;;;16.40;48.20;;;;;;5116478;28;20264;-53
2023/03/01 00:49:40;;;;;;;2.25;2.08;;;16.40;48.20;;;;;;5115327;28;20260;-50
2023/03/01 00:52:08;;;;;;;4.18;2.30;;;16.40;48.20;;;;;;5116165;28;20196;-50
2023/03/01 00:54:33;;;;;;;2.20;1.92;;;16.30;48.20;;;;;;5116011;28;20209;-54
2023/03/01 00:56:59;;;;;;;2.90;2.45;;;16.30;48.20;;;;;;5115351;28;20624;-53
2023/03/01 00:59:25;;;;;;;2.50;2.30;;;16.30;48.20;;;;;;5116525;28;20180;-51
2023/03/01 01:01:50;;;;;;;3.88;2.60;;;16.30;48.30;;;;;;5116003;28;20310;-56
2023/03/01 01:04:16;;;;;;;2.95;2.33;;;16.30;48.20;;;;;;5115244;28;20180;-53
2023/03/01 01:06:43;;;;;;;2.72;2.35;;;16.30;48.30;;;;;;5115792;28;20176;-54
2023/03/01 01:09:16;;;;;;;2.33;2.13;;;16.20;48.30;;;;;;5115124;28;20537;-54
2023/03/01 01:11:42;;;;;;;2.88;2.25;;;16.20;48.20;;;;;;5115471;28;20521;-53
2023/03/01 01:14:14;;;;;;;2.65;2.45;;;16.20;48.20;;;;;;5115964;28;20567;-54
2023/03/01 01:16:40;;;;;;;2.13;1.90;;;16.20;48.20;;;;;;5113918;28;20591;-55
2023/03/01 01:19:05;;;;;;;2.60;2.30;;;16.20;48.20;;;;;;5115488;28;20699;-53
2023/03/01 01:21:31;;;;;;;2.22;2.03;;;16.20;48.30;;;;;;5115860;28;20173;-53
2023/03/01 01:23:56;;;;;;;2.22;2.03;;;16.20;48.30;;;;;;5114725;28;20177;-51
2023/03/01 01:26:24;;;;;;;2.40;2.20;;;16.20;48.30;;;;;;5115693;28;20173;-49
2023/03/01 01:28:49;;;;;;;2.20;2.00;;;16.10;48.30;;;;;;5115432;28;20213;-52
2023/03/01 01:31:15;;;;;;;2.83;2.33;;;16.10;48.30;;;;;;5114737;28;20212;-53
2023/03/01 01:33:41;;;;;;;2.25;2.05;;;16.10;48.30;;;;;;5115225;28;20200;-54
2023/03/01 01:36:09;;;;;;;2.42;2.08;;;16.10;48.90;;;;;;5115554;28;20181;-52
2023/03/01 01:38:35;;;;;;;2.45;2.25;;;16.10;48.30;;;;;;5114252;28;20176;-54
2023/03/01 01:41:01;;;;;;;2.67;2.45;;;16.10;48.30;;;;;;5115479;28;20196;-54
2023/03/01 01:43:33;;;;;;;2.35;2.10;;;16.10;48.30;;;;;;5115336;28;20718;-55
2023/03/01 01:46:07;;;;;;;2.70;2.30;;;16.00;48.20;;;;;;5114668;28;20177;-53
2023/03/01 01:48:48;;;;;;;2.85;2.50;;;16.00;48.30;;;;;;5097734;28;20180;-53
2023/03/01 01:51:18;;;;;;;2.40;2.10;;;16.00;48.30;;;;;;5113853;28;20180;-51
2023/03/01 01:53:43;;;;;;;3.17;2.13;;;16.00;48.20;;;;;;5114598;28;20213;-53
2023/03/01 01:56:09;;;;;;;2.40;2.20;;;16.00;48.30;;;;;;5115088;28;20172;-54
2023/03/01 01:58:34;;;;;;;2.88;2.55;;;16.00;48.30;;;;;;5095901;28;20631;-53
2023/03/01 02:01:01;;;;;;;2.60;2.40;;;16.00;48.30;;;;;;5113850;28;20170;-54
2023/03/01 02:03:33;;;;;;;2.35;2.08;;;16.00;48.30;;;;;;5114816;28;20173;-52
2023/03/01 02:06:01;;;;;;;3.22;2.53;;;16.00;48.30;;;;;;5113178;28;20180;-54
2023/03/01 02:08:28;;;;;;;2.50;2.30;;;16.00;48.30;;;;;;5113839;28;20169;-50
2023/03/01 02:10:54;;;;;;;2.40;2.20;;;15.90;48.20;;;;;;5113491;28;20173;-54
2023/03/01 02:13:19;;;;;;;2.60;2.40;;;15.90;48.30;;;;;;5095976;28;20181;-54
2023/03/01 02:15:45;;;;;;;2.47;2.28;;;15.90;48.30;;;;;;5114420;28;20181;-51
2023/03/01 02:18:11;;;;;;;2.67;2.47;;;15.90;48.30;;;;;;5114505;28;20217;-51
2023/03/01 02:21:02;;;;;;;3.55;2.70;;;15.90;48.30;;;;;;5113440;28;20289;-52
2023/03/01 02:23:28;;;;;;;2.40;2.20;;;15.90;48.30;;;;;;5113608;28;20730;-50
2023/03/01 02:26:17;;;;;;;2.30;2.10;;;15.90;48.30;;;;;;5096285;28;20239;-52
2023/03/01 02:28:43;;;;;;;3.58;2.65;;;15.80;48.30;;;;;;5113630;28;20205;-49
2023/03/01 02:33:53;;;;;;;2.55;2.25;;;15.80;48.30;;;;;;5113235;28;20565;-53
2023/03/01 02:36:24;;;;;;;2.53;2.33;;;15.80;48.30;;;;;;5113091;28;20161;-51
2023/03/01 02:38:51;;;;;;;2.53;2.33;;;15.80;48.30;;;;;;5113956;28;20177;-53
2023/03/01 02:41:17;;;;;;;2.35;2.15;;;15.80;48.30;;;;;;5112493;28;20180;-54
2023/03/01 02:43:43;;;;;;;2.80;2.60;;;15.80;48.40;;;;;;5095679;28;20169;-53
2023/03/01 02:46:14;;;;;;;2.72;2.50;;;15.70;48.30;;;;;;5114211;28;20173;-52
2023/03/01 02:48:45;;;;;;;2.60;2.22;;;15.80;48.40;;;;;;5113096;28;20188;-53
2023/03/01 02:51:23;;;;;;;3.35;2.40;;;15.70;48.40;;;;;;5113970;28;20184;-51
2023/03/01 02:54:23;;;;;;;2.58;2.38;;;15.70;48.30;;;;;;5113743;28;20229;-51
2023/03/01 02:56:48;;;;;;;2.33;2.13;;;15.70;48.40;;;;;;5111735;28;20658;-51
2023/03/01 02:59:14;;;;;;;2.53;2.33;;;15.70;48.30;;;;;;5113862;28;20165;-53
2023/03/01 03:01:39;;;;;;;2.88;2.58;;;15.70;48.40;;;;;;5111646;28;20542;-52
2023/03/01 03:04:10;;;;;;;2.67;2.47;;;15.70;48.40;;;;;;5113640;28;20706;-50
2023/03/01 03:06:35;;;;;;;2.63;2.42;;;15.70;48.40;;;;;;5113450;28;20177;-54
2023/03/01 03:09:01;;;;;;;2.50;2.30;;;15.70;48.40;;;;;;5113124;28;20268;-54
2023/03/01 03:11:27;;;;;;;2.60;2.33;;;15.70;48.40;;;;;;5113653;28;20173;-53
2023/03/01 03:13:52;;;;;;;3.00;2.80;;;15.60;48.30;;;;;;5113337;28;20242;-52
2023/03/01 03:16:18;;;;;;;2.47;2.28;;;15.60;48.40;;;;;;5112789;28;20166;-53
2023/03/01 03:18:44;;;;;;;2.17;2.05;;;15.60;48.40;;;;;;5113164;28;20691;-49
2023/03/01 03:21:11;;;;;;;2.72;2.53;;;15.60;48.30;;;;;;5113446;28;20315;-52
2023/03/01 03:23:36;;;;;;;2.20;2.10;;;15.60;48.40;;;;;;5111206;28;20539;-54
2023/03/01 03:26:04;;;;;;;2.70;2.50;;;15.60;48.40;;;;;;5113470;28;20165;-49
2023/03/01 03:28:30;;;;;;;3.25;2.85;;;15.60;48.40;;;;;;5113363;28;20536;-49
2023/03/01 03:30:56;;;;;;;2.53;2.33;;;15.50;48.30;;;;;;5112464;28;20587;-52
2023/03/01 03:33:21;;;;;;;2.97;2.40;;;15.60;48.40;;;;;;5113476;28;20177;-50
2023/03/01 03:35:48;;;;;;;2.42;2.22;;;15.50;48.40;;;;;;5112997;28;20238;-53
2023/03/01 03:38:17;;;;;;;2.55;2.35;;;15.50;48.40;;;;;;5112556;28;20535;-52
2023/03/01 03:40:47;;;;;;;2.10;1.90;;;15.50;48.40;;;;;;5117531;28;20193;-53
2023/03/01 03:43:21;;;;;;;2.50;2.30;;;15.50;48.40;;;;;;5120177;28;20245;-50
2023/03/01 03:45:47;;;;;;;2.80;2.28;;;15.50;48.40;;;;;;5119280;28;20188;-52
2023/03/01 03:48:13;;;;;;;3.15;2.33;;;15.50;48.40;;;;;;5120216;28;20635;-50
2023/03/01 03:50:39;;;;;;;2.65;2.45;;;15.50;48.40;;;;;;5119770;28;20651;-51
2023/03/01 03:53:06;;;;;;;2.65;2.45;;;15.50;48.40;;;;;;5119413;28;20265;-53
2023/03/01 03:55:33;;;;;;;2.70;2.50;;;15.50;48.40;;;;;;5119632;28;20214;-51
2023/03/01 03:58:02;;;;;;;2.60;2.40;;;15.50;48.40;;;;;;5119228;28;20545;-51
2023/03/01 04:00:27;;;;;;;2.45;2.25;;;15.50;48.40;;;;;;5120115;28;20180;-53
2023/03/01 04:02:56;;;;;;;2.50;2.30;;;15.40;48.40;;;;;;5119560;28;20255;-52
2023/03/01 04:05:22;;;;;;;3.00;2.70;;;15.40;48.30;;;;;;5119136;28;20267;-52
2023/03/01 04:07:47;;;;;;;3.00;2.35;;;15.40;48.40;;;;;;5119644;28;20208;-53
2023/03/01 04:10:15;;;;;;;2.70;2.30;;;15.40;48.40;;;;;;5119836;28;20272;-52
2023/03/01 04:12:43;;;;;;;2.85;2.65;;;15.40;48.40;;;;;;5118913;28;20537;-53
2023/03/01 04:15:14;;;;;;;2.72;2.20;;;15.40;48.40;;;;;;5120006;28;20287;-49
2023/03/01 04:17:41;;;;;;;2.47;2.28;;;15.40;48.40;;;;;;5119719;28;20176;-53
2023/03/01 04:20:10;;;;;;;2.25;2.05;;;15.40;48.40;;;;;;5118850;28;20687;-51
2023/03/01 04:22:37;;;;;;;2.25;2.10;;;15.30;48.40;;;;;;5119455;28;20180;-49
2023/03/01 04:25:04;;;;;;;2.80;2.58;;;15.30;48.40;;;;;;5119729;28;20169;-50
2023/03/01 04:27:34;;;;;;;2.65;2.35;;;15.30;48.40;;;;;;5119172;27;20730;-49
2023/03/01 04:30:00;;;;;;;2.55;2.30;;;15.30;48.40;;;;;;5119833;28;20169;-50
2023/03/01 04:32:25;;;;;;;2.78;2.58;;;15.30;48.40;;;;;;5119772;28;20238;-50
2023/03/01 04:34:51;;;;;;;2.60;2.40;;;15.30;48.40;;;;;;5118698;28;20223;-51
2023/03/01 04:37:16;;;;;;;2.15;1.95;;;15.30;48.40;;;;;;5119618;28;20172;-53
2023/03/01 04:39:45;;;;;;;2.38;2.20;;;15.30;48.40;;;;;;5119256;28;20233;-53
2023/03/01 04:42:11;;;;;;;2.28;2.13;;;15.30;48.40;;;;;;5118748;28;20174;-53
2023/03/01 04:44:37;;;;;;;2.20;2.00;;;15.30;48.40;;;;;;5119439;28;20181;-55
2023/03/01 04:47:02;;;;;;;2.40;2.20;;;15.30;48.40;;;;;;5119655;28;20169;-54
2023/03/01 04:49:28;;;;;;;2.28;2.13;;;15.20;48.40;;;;;;5118886;28;20203;-54
2023/03/01 04:51:53;;;;;;;2.50;2.30;;;15.20;48.40;;;;;;5116065;28;20656;-53
2023/03/01 04:54:19;;;;;;;2.50;2.30;;;15.20;48.40;;;;;;5115266;28;20204;-53
2023/03/01 04:56:44;;;;;;;2.25;2.15;;;15.20;48.40;;;;;;5115879;28;20177;-53
2023/03/01 04:59:12;;;;;;;2.40;2.10;;;15.20;48.40;;;;;;5116267;28;20177;-53
2023/03/01 05:01:38;;;;;;;2.40;2.20;;;15.20;48.40;;;;;;5115053;28;20711;-54
2023/03/01 05:04:05;;;;;;;2.50;2.25;;;15.20;48.40;;;;;;5115984;28;20264;-54
2023/03/01 05:06:30;;;;;;;2.67;2.47;;;15.20;48.40;;;;;;5115975;28;20174;-49
2023/03/01 05:08:56;;;;;;;2.63;1.98;;;15.10;48.40;;;;;;5115102;28;20165;-52
2023/03/01 05:11:21;;;;;;;2.35;2.15;;;15.10;48.40;;;;;;5116126;28;20169;-53
2023/03/01 05:13:47;;;;;;;2.20;2.10;;;15.10;48.40;;;;;;5115670;28;20227;-53
2023/03/01 05:16:12;;;;;;;2.92;2.65;;;15.10;48.40;;;;;;5115296;28;20248;-55
2023/03/01 05:18:38;;;;;;;2.20;2.10;;;15.10;48.40;;;;;;5115571;28;20544;-55
2023/03/01 05:21:09;;;;;;;2.20;2.10;;;15.10;48.40;;;;;;5115853;28;20225;-54
2023/03/01 05:23:34;;;;;;;2.20;2.10;;;15.10;48.40;;;;;;5114724;28;20185;-53
2023/03/01 05:26:01;;;;;;;2.08;1.88;;;15.10;48.40;;;;;;5115687;28;20174;-49
2023/03/01 05:28:26;;;;;;;2.40;2.20;;;15.10;48.40;;;;;;5115843;28;20172;-54
2023/03/01 05:30:52;;;;;;;2.70;2.50;;;15.10;48.40;;;;;;5114662;28;20181;-51
2023/03/01 05:33:18;;;;;;;2.25;2.08;;;15.10;48.40;;;;;;5115403;28;20648;-52
2023/03/01 05:35:44;;;;;;;2.47;2.28;;;15.10;48.40;;;;;;5115130;28;20180;-51
2023/03/01 05:38:13;;;;;;;2.63;2.38;;;15.00;48.40;;;;;;5114598;28;20177;-51
2023/03/01 05:40:39;;;;;;;2.45;2.25;;;15.00;48.40;;;;;;5115267;28;20222;-50
2023/03/01 05:43:05;;;;;;;2.55;2.35;;;15.00;48.40;;;;;;5115430;28;20176;-52
2023/03/01 05:45:32;;;;;;;2.55;2.35;;;15.00;48.40;;;;;;5114638;28;20174;-55
2023/03/01 05:47:57;;;;;;;2.70;2.50;;;15.00;48.40;;;;;;5115245;28;20177;-51
2023/03/01 05:50:29;;;;;;;2.20;2.10;;;15.00;48.40;;;;;;5114768;28;20673;-52
2023/03/01 05:53:05;;;;;;;2.75;2.20;;;14.90;48.40;;;;;;5115117;28;20169;-51
2023/03/01 05:55:31;;;;;;;2.17;2.08;;;14.90;48.40;;;;;;5115047;28;20208;-51
2023/03/01 05:58:04;;;;;;;2.50;2.22;;;14.90;48.40;;;;;;5114568;28;20585;-53
2023/03/01 06:00:30;;;;;;;2.83;2.40;;;15.00;48.50;;;;;;5114958;28;20204;-53
2023/03/01 06:02:56;;;;;;;2.30;2.10;;;15.00;48.50;;;;;;5114177;28;20529;-53
2023/03/01 06:05:22;;;;;;;2.42;2.15;;;15.00;48.40;;;;;;5114319;28;20566;-54
2023/03/01 06:07:48;;;;;;;1.85;1.70;;;15.00;48.40;;;;;;5114622;28;20704;-53
2023/03/01 06:10:13;;;;;;;1.90;1.80;;;15.10;48.40;;;;;;5114888;28;20165;-54
2023/03/01 06:12:40;;;;;;;2.88;2.60;;;15.10;48.30;;;;;;5113784;28;20195;-53
2023/03/01 06:15:06;;;;;;;2.45;2.25;;;15.10;48.20;;;;;;5114649;28;20555;-51
2023/03/01 06:17:37;;;;;;;2.13;2.03;;;15.10;48.20;;;;;;5114155;28;20169;-54
2023/03/01 06:20:05;;;;;;;1.77;1.67;;;15.10;48.20;;;;;;5113594;28;20556;-55
2023/03/01 06:22:31;;;;;;;2.03;1.83;;;15.10;48.20;;;;;;5114695;28;20177;-55
2023/03/01 06:24:56;;;;;;;1.92;1.83;;;15.10;48.20;;;;;;5114489;28;20219;-53
2023/03/01 06:27:22;;;;;;;2.33;2.13;;;15.10;48.20;;;;;;5113798;28;20201;-54
2023/03/01 06:29:48;;;;;;;2.60;2.40;;;15.10;48.30;;;;;;5114040;28;20202;-54
2023/03/01 06:32:14;;;;;;;2.40;2.20;;;15.10;48.30;;;;;;5114210;28;20180;-52
2023/03/01 06:34:39;;;;;;;2.40;2.10;;;15.00;48.20;;;;;;5113399;28;20209;-54
2023/03/01 06:37:05;;;;;;;2.22;2.13;;;15.10;48.20;;;;;;5114460;28;20176;-54
2023/03/01 06:39:32;;;;;;;2.45;2.25;;;15.10;48.20;;;;;;5113065;28;20212;-55
2023/03/01 06:41:57;;;;;;;2.05;1.90;;;15.20;48.10;;;;;;5113475;28;20165;-51
2023/03/01 06:44:23;;;;;;;2.08;1.90;;;15.30;48.00;;;;;;5114008;28;20169;-53
2023/03/01 06:46:48;;;;;;;2.10;2.00;;;15.30;48.00;;;;;;5113101;28;20581;-51
2023/03/01 06:49:15;;;;;;;2.28;2.08;;;15.30;47.90;;;;;;5114147;28;20177;-50
2023/03/01 06:51:41;;;;;;;2.17;2.08;;;15.40;48.50;;;;;;5113634;28;20505;-52
2023/03/01 06:54:07;;;;;;;2.05;1.95;;;15.30;47.70;;;;;;5113178;28;20226;-52
2023/03/01 06:56:32;;;;;;;2.08;1.98;;;15.50;47.70;;;;;;5113631;28;20193;-49
2023/03/01 06:58:58;;;;;;;2.38;2.17;;;15.50;47.60;;;;;;5113902;28;20169;-53
2023/03/01 07:01:23;;;;;;;2.42;2.22;;;15.60;47.60;;;;;;5113015;28;20181;-54
2023/03/01 07:03:49;;;;;;;2.63;2.42;;;15.80;47.40;;;;;;5113306;28;20166;-54
2023/03/01 07:06:14;;;;;;;2.00;1.85;;;16.00;47.30;;;;;;5113687;28;20177;-52
2023/03/01 07:08:40;;;;;;;2.00;1.83;;;16.10;47.10;;;;;;5112810;28;20165;-53
2023/03/01 07:11:05;;;;;;;2.10;2.00;;;16.30;46.80;;;;;;5113454;28;20584;-50
2023/03/01 07:13:31;;;;;;;1.90;1.80;;;16.50;46.60;;;;;;5113603;28;20507;-53
2023/03/01 07:15:57;;;;;;;2.10;2.00;;;16.60;46.30;;;;;;5112161;28;20678;-54
2023/03/01 07:18:22;;;;;;;2.08;1.98;;;16.80;46.00;;;;;;5113520;28;20263;-55
2023/03/01 07:20:48;;;;;;;2.45;2.25;;;17.10;45.70;;;;;;5113091;28;20315;-51
2023/03/01 07:23:13;;;;;;;1.80;1.70;;;17.20;45.60;;;;;;5112888;28;20264;-53
2023/03/01 07:25:39;;;;;;;2.28;2.08;;;17.20;45.50;;;;;;5113069;28;20212;-52
2023/03/01 07:28:05;;;;;;;2.13;2.03;;;17.30;45.40;;;;;;5113435;28;20681;-51
2023/03/01 07:30:30;;;;;;;2.28;2.08;;;17.30;45.40;;;;;;5112603;28;20658;-53
2023/03/01 07:32:57;;;;;;;1.83;1.73;;;17.30;45.50;;;;;;5113303;28;20172;-52
2023/03/01 07:35:23;;;;;;;2.63;2.42;;;17.20;45.50;;;;;;5113426;28;20219;-53
2023/03/01 07:37:48;;;;;;;2.10;2.00;;;17.10;45.70;;;;;;5112479;28;20200;-52
2023/03/01 07:40:14;;;;;;;2.10;1.88;;;17.10;46.00;;;;;;5113298;28;20168;-53
2023/03/01 07:42:39;;;;;;;1.88;1.73;;;17.00;46.00;;;;;;5113121;28;20195;-54
2023/03/01 07:45:05;;;;;;;1.90;1.80;;;17.00;46.10;;;;;;5112546;28;20179;-53
2023/03/01 07:47:31;;;;;;;1.83;1.73;;;17.00;46.10;;;;;;5113648;28;20227;-54
2023/03/01 07:49:57;;;;;;;1.95;1.75;;;17.10;46.10;;;;;;5113129;28;20537;-54
2023/03/01 07:52:22;;;;;;;1.95;1.85;;;17.10;46.10;;;;;;5112727;28;20591;-53
2023/03/01 07:54:48;;;;;;;1.92;1.83;;;17.10;46.10;;;;;;5112977;28;20690;-55
2023/03/01 07:57:13;;;;;;;2.08;1.95;;;17.10;46.10;;;;;;5112385;28;20173;-55
2023/03/01 07:59:39;;;;;;;2.17;1.98;;;17.10;46.20;;;;;;5112793;28;20225;-63
2023/03/01 08:02:05;;;;;;;1.85;1.75;;;17.10;46.30;;;;;;5112787;28;20260;-63
2023/03/01 08:04:31;;;;;;;3.42;2.10;;;17.20;46.30;;;;;;5112321;28;20209;-63
2023/03/01 08:06:56;;;;;;;1.92;1.73;;;17.30;46.30;;;;;;5112962;28;20174;-63
2023/03/01 08:09:22;;;;;;;2.15;1.83;;;17.40;46.30;;;;;;5112869;28;20173;-67
2023/03/01 08:11:47;;;;;;;1.98;1.75;;;17.40;46.40;;;;;;5111747;28;20181;-66
2023/03/01 08:14:13;;;;;;;2.35;1.63;;;17.40;46.50;;;;;;5112593;28;20287;-63
2023/03/01 08:16:39;;;;;;;3.92;1.70;;;17.40;46.70;;;;;;5112766;28;20263;-66
2023/03/01 08:19:08;;;;;;;2.53;2.08;;;17.40;46.70;;;;;;5111923;28;20204;-66
2023/03/01 08:21:34;;;;;;;3.25;2.00;;;17.40;46.90;;;;;;5112663;28;20185;-66
2023/03/01 08:24:01;;;;;;;2.63;1.83;;;17.30;47.00;;;;;;5112765;28;20178;-62
2023/03/01 08:26:26;;;;;;;2.35;1.85;;;17.20;47.00;;;;;;5113609;28;20173;-63
2023/03/01 08:28:52;;;;;;;2.80;2.22;;;17.20;47.10;;;;;;5116279;28;20180;-61
2023/03/01 08:31:19;;;;;;;4.50;2.20;;;17.10;47.10;;;;;;5116449;28;20173;-61
2023/03/01 08:33:50;;;;;;;1.75;1.65;;;17.20;47.30;;;;;;5115361;28;20259;-61
2023/03/01 08:36:16;;;;;;;2.67;2.00;;;17.10;47.40;;;;;;5116589;28;20222;-61
2023/03/01 08:38:41;;;;;;;4.72;1.63;;;17.10;47.50;;;;;;5116123;28;20173;-61
2023/03/01 08:41:07;;;;;;;2.92;2.08;;;17.10;47.60;;;;;;5115620;28;20218;-61
2023/03/01 08:43:32;;;;;;;1.77;1.63;;;17.10;47.70;;;;;;5115875;28;20165;-61
2023/03/01 08:45:58;;;;;;;1.73;1.60;;;17.10;47.80;;;;;;5116216;28;20230;-61
2023/03/01 08:48:23;;;;;;;1.70;1.60;;;17.00;47.80;;;;;;5115342;28;20254;-61
2023/03/01 08:50:49;;;;;;;3.10;1.77;;;17.00;47.90;;;;;;5115940;28;20185;-61
2023/03/01 08:53:14;;;;;;;2.20;2.00;;;17.00;48.00;;;;;;5115872;28;20166;-61
2023/03/01 08:55:40;;;;;;;2.63;1.67;;;17.00;48.00;;;;;;5115315;28;20220;-61
2023/03/01 08:58:05;;;;;;;1.83;1.73;;;17.00;48.10;;;;;;5115831;28;20173;-62
2023/03/01 09:00:34;;;;;;;2.63;1.45;;;17.00;48.10;;;;;;5114898;28;20187;-62
2023/03/01 09:03:00;;;;;;;1.95;1.83;;;17.00;48.20;;;;;;5115925;28;20184;-63
2023/03/01 09:05:25;;;;;;;3.88;1.50;;;17.00;48.30;;;;;;5116061;28;20177;-62
2023/03/01 09:07:51;;;;;;;2.38;1.60;;;17.00;48.30;;;;;;5114831;28;20181;-63
2023/03/01 09:10:17;;;;;;;2.10;1.90;;;17.00;48.40;;;;;;5115767;28;20173;-61
2023/03/01 09:12:42;;;;;;;2.15;1.88;;;17.00;48.40;;;;;;5115132;28;20636;-62
2023/03/01 09:15:08;;;;;;;2.15;1.65;;;17.00;48.40;;;;;;5114251;28;20217;-62
2023/03/01 09:17:34;;;;;;;2.50;1.77;;;17.00;48.40;;;;;;5115414;27;20173;-62
2023/03/01 09:19:59;;;;;;;2.33;1.70;;;17.00;48.50;;;;;;5115482;28;20358;-63
2023/03/01 09:22:25;;;;;;;2.53;1.63;;;17.10;48.60;;;;;;5114866;28;20306;-61
2023/03/01 09:24:51;;;;;;;1.80;1.70;;;17.10;48.60;;;;;;5115213;28;20259;-62
2023/03/01 09:27:18;;;;;;;1.60;1.50;;;17.10;48.70;;;;;;5115454;28;20197;-62
2023/03/01 09:29:44;;;;;;;2.42;1.77;;;17.10;48.70;;;;;;5114605;28;20180;-62
2023/03/01 09:32:10;;;;;;;2.30;1.77;;;17.10;48.70;;;;;;5115439;28;20166;-62
2023/03/01 09:35:00;;;;;;;2.92;1.50;;;17.10;48.70;;;;;;5114746;28;20588;-63
2023/03/01 09:37:24;;;;;;;2.70;1.92;;;17.10;48.70;;;;;;5113804;28;20184;-71
2023/03/01 09:39:49;;;;;;;4.30;2.50;;;17.10;48.70;;;;;;5114171;27;20576;-64
2023/03/01 09:42:16;;;;;;;1.95;1.60;;;17.20;48.70;;;;;;5123941;27;20529;-63
2023/03/01 09:44:51;;;;;;;2.50;1.42;;;17.10;48.80;;;;;;5120904;27;20176;-64
2023/03/01 09:47:25;;;;;;;1.67;1.40;;;17.10;48.80;;;;;;5134473;27;20172;-63
2023/03/01 09:50:02;;;;;;;2.13;1.70;;;17.10;48.90;;;;;;5120233;27;20194;-63
2023/03/01 09:52:39;;;;;;;1.85;1.63;;;17.10;48.90;;;;;;5114064;28;20173;-64
2023/03/01 09:55:12;;;;;;;3.25;1.90;;;17.10;48.80;;;;;;5114958;28;20230;-65
2023/03/01 09:57:41;;;;;;;2.38;2.17;;;17.10;48.60;;;;;;5120831;27;20172;-65
2023/03/01 10:00:28;;;;;;;1.98;1.73;;;17.10;48.50;;;;;;5134276;27;20176;-65
2023/03/01 10:03:17;;;;;;;2.28;1.92;;;17.10;48.40;;;;;;5135155;27;20176;-65
2023/03/01 10:05:54;;;;;;;3.72;2.10;;;17.10;48.10;;;;;;5122552;27;20195;-64
2023/03/01 10:08:35;;;;;;;3.17;1.90;;;17.20;48.20;;;;;;5135347;27;20196;-64
2023/03/01 10:11:01;;;;;;;2.85;1.77;;;17.10;48.00;;;;;;5134210;27;20269;-63
2023/03/01 10:13:37;;;;;;;2.00;1.80;;;17.10;48.00;;;;;;5134084;27;20168;-64
2023/03/01 10:16:13;;;;;;;2.58;1.90;;;17.10;48.10;;;;;;5098191;28;20181;-64
2023/03/01 10:18:38;;;;;;;2.33;1.70;;;17.20;48.20;;;;;;5095567;28;20214;-63
2023/03/01 10:21:16;;;;;;;1.95;1.85;;;17.20;48.20;;;;;;5112160;28;20244;-63
2023/03/01 10:23:41;;;;;;;3.75;1.95;;;17.20;48.20;;;;;;5114023;28;20173;-64
2023/03/01 10:26:31;;;;;;;3.03;1.63;;;17.20;48.10;;;;;;5113460;28;20169;-63
2023/03/01 10:29:04;;;;;;;2.53;1.60;;;17.20;48.00;;;;;;5114215;28;20177;-64
2023/03/01 10:31:42;;;;;;;2.70;1.73;;;17.20;47.90;;;;;;5114234;28;20173;-65
2023/03/01 10:34:10;;;;;;;2.47;1.90;;;17.20;48.00;;;;;;5112204;28;20200;-65
2023/03/01 10:36:35;;;;;;;2.25;1.90;;;17.20;48.10;;;;;;5112847;28;20251;-64
2023/03/01 10:39:03;;;;;;;3.80;1.83;;;17.20;48.10;;;;;;5112376;28;20252;-65
2023/03/01 10:41:28;;;;;;;2.08;1.60;;;17.20;48.20;;;;;;5112602;28;20256;-64
2023/03/01 10:43:58;;;;;;;4.65;1.83;;;17.20;48.10;;;;;;5112543;28;20260;-65
2023/03/01 10:46:31;;;;;;;1.88;1.77;;;17.20;48.20;;;;;;5111945;28;20194;-64
2023/03/01 10:49:17;;;;;;;1.60;1.50;;;17.20;48.20;;;;;;5122541;27;20229;-65
2023/03/01 10:51:45;;;;;;;1.40;1.30;;;17.20;48.20;;;;;;5133948;27;20253;-64
2023/03/01 10:54:17;;;;;;;1.98;1.50;;;17.20;48.30;;;;;;5132407;27;20200;-64
2023/03/01 10:56:50;;;;;;;2.03;1.75;;;17.30;48.30;;;;;;5133891;27;20172;-65
2023/03/01 10:59:33;;;;;;;2.63;1.90;;;17.30;48.20;;;;;;5134446;27;20199;-65
2023/03/01 11:02:03;;;;;;;2.38;1.83;;;17.30;48.30;;;;;;5133701;27;20589;-65
2023/03/01 11:04:29;;;;;;;2.40;1.60;;;17.30;48.30;;;;;;5134333;27;20648;-64
2023/03/01 11:06:58;;;;;;;1.63;1.52;;;17.30;48.40;;;;;;5133275;27;20264;-65
2023/03/01 11:09:27;;;;;;;1.65;1.55;;;17.30;48.30;;;;;;5133995;27;20183;-64
2023/03/01 11:11:57;;;;;;;2.75;1.75;;;17.30;48.20;;;;;;5133877;27;20168;-64
2023/03/01 11:14:26;;;;;;;2.22;1.98;;;17.40;48.40;;;;;;5132122;27;20211;-63
2023/03/01 11:17:40;;;;;;;2.80;1.55;;;17.30;48.40;;;;;;5133694;27;20314;-64
2023/03/01 11:20:14;;;;;;;1.42;1.33;;;17.30;48.30;;;;;;5119879;27;20212;-64
2023/03/01 11:22:46;;;;;;;3.38;1.75;;;17.30;48.30;;;;;;5133011;27;20171;-64
2023/03/01 11:25:13;;;;;;;1.73;1.60;;;17.30;48.20;;;;;;5115985;28;20184;-64
2023/03/01 11:27:43;;;;;;;1.75;1.65;;;17.30;48.20;;;;;;5115447;27;20172;-65
2023/03/01 11:30:25;;;;;;;2.22;1.85;;;17.40;48.20;;;;;;5131707;27;20240;-65
2023/03/01 11:33:05;;;;;;;1.98;1.80;;;17.30;48.10;;;;;;5132209;27;20172;-66
2023/03/01 11:35:33;;;;;;;4.22;1.77;;;17.40;48.10;;;;;;5131696;27;20216;-65
2023/03/01 11:38:01;;;;;;;2.85;1.58;;;17.30;48.10;;;;;;5115823;28;20232;-65
2023/03/01 11:40:47;;;;;;;1.58;1.48;;;17.30;48.10;;;;;;5133365;27;20204;-67
2023/03/01 11:43:49;;;;;;;2.22;1.73;;;17.40;48.00;;;;;;5115267;28;20205;-68
2023/03/01 11:46:52;;;;;;;2.90;1.88;;;17.40;48.00;;;;;;5133731;28;20164;-64
2023/03/01 11:49:39;;;;;;;2.25;1.65;;;17.40;47.90;;;;;;5120412;28;20524;-64
2023/03/01 11:52:22;;;;;;;3.13;1.70;;;17.40;47.90;;;;;;5112055;28;20173;-63
2023/03/01 11:54:56;;;;;;;1.60;1.40;;;17.40;48.50;;;;;;5112082;28;20280;-64
2023/03/01 11:57:36;;;;;;;4.97;1.67;;;17.50;47.90;;;;;;5111783;28;20172;-64
2023/03/01 12:00:39;;;;;;;2.30;1.35;;;17.50;47.90;;;;;;5110402;28;20529;-65
2023/03/01 12:03:33;;;;;;;3.05;1.70;;;17.50;47.90;;;;;;5115935;28;20176;-64
2023/03/01 12:06:13;;;;;;;3.65;1.58;;;17.50;47.90;;;;;;5113799;28;20623;-65
2023/03/01 12:08:42;;;;;;;1.50;1.40;;;17.60;48.00;;;;;;5113894;28;20165;-64
2023/03/01 12:11:17;;;;;;;1.80;1.42;;;17.60;48.10;;;;;;5116301;28;20203;-65
2023/03/01 12:14:08;;;;;;;1.63;1.48;;;17.60;48.20;;;;;;5116405;28;20164;-64
2023/03/01 12:16:48;;;;;;;2.25;1.45;;;17.60;48.20;;;;;;5115311;28;20227;-64
2023/03/01 12:19:46;;;;;;;3.08;1.75;;;17.50;48.10;;;;;;5114541;28;20593;-64
2023/03/01 12:22:34;;;;;;;5.78;1.67;;;17.50;48.20;;;;;;5115794;28;20195;-64
2023/03/01 12:25:18;;;;;;;2.40;1.40;;;17.50;48.20;;;;;;5114697;28;20660;-63
2023/03/01 12:28:28;;;;;;;2.63;1.58;;;17.40;48.20;;;;;;5116463;27;20173;-64
2023/03/01 12:31:15;;;;;;;2.72;1.70;;;17.40;48.10;;;;;;5053413;28;20175;-63
2023/03/01 12:34:01;;;;;;;2.03;1.33;;;17.40;48.10;;;;;;5109026;28;20185;-64
2023/03/01 12:36:39;;;;;;;3.75;1.67;;;17.40;48.10;;;;;;5115247;28;20181;-64
2023/03/01 12:39:27;;;;;;;1.75;1.50;;;17.40;48.00;;;;;;5115282;28;20169;-63
2023/03/01 12:42:19;;;;;;;2.92;1.50;;;17.40;48.00;;;;;;5114764;28;20620;-64
2023/03/01 12:45:00;;;;;;;1.40;1.30;;;17.40;48.10;;;;;;5084060;28;20181;-65
2023/03/01 12:47:50;;;;;;;1.70;1.60;;;17.40;48.00;;;;;;5115556;28;20199;-64
2023/03/01 12:50:26;;;;;;;3.00;1.67;;;17.40;48.00;;;;;;5136586;27;20164;-66
2023/03/01 12:52:53;;;;;;;3.15;1.83;;;17.40;48.00;;;;;;5118498;27;20297;-63
2023/03/01 12:55:31;;;;;;;2.03;1.80;;;17.40;47.90;;;;;;5135430;27;20588;-63
2023/03/01 12:58:21;;;;;;;1.80;1.70;;;17.50;47.90;;;;;;5135367;27;20649;-64
2023/03/01 13:01:36;;;;;;;2.45;1.38;;;17.50;48.00;;;;;;5135775;27;20177;-65
2023/03/01 13:04:44;;;;;;;3.45;1.92;;;17.50;48.00;;;;;;5108972;27;20184;-65